Tennga, Georgia
Current Conditions -  °F | °C
As of 8:35 PM on Thursday 27 Nov 2014 (Local Time) from KRZR Reporting Station
Clear Clear  
Wind Chill: 27°   Ceiling: Unl
Heat Index: 32°   Visibility: 10mi
Dew Point: 21°   Wind: 5mph
Humidity: 64%   Direction: 10°N
Pressure: 30.4"   Gusts: NA
Location:  34.99°N, 84.74°W
Report Text: KRZR 280135Z AUTO 01004KT 10SM CLR 00/M06 A3040 RMK
Loading
Personal Weather Stations






























Interactive Weather Map New forecast layout! Learn more

10-Day Weather Forecast

Advertisements
Track Severe Weather on mobile